Gillette, WY (82716)

6:52 PM MST on December 08, 2016 (GMT -0700)
McCann Heights, central Gillette | | Change Station

Elev 4590 ft 44.28 °N, 105.50 °W | Updated 6 seconds ago

Clear
Clear
-1.7 °F
Feels Like -2 °F
N
0.0
Wind Variable Wind from ESE

Today
High -- | Low -- °F
--% Chance of Precip.
Yesterday
High -- | Low -- °F
Precip. -- in
Pressure 30.64 in
Visibility 10.0 miles
Clouds Clear
Windchill -2 °F
Dew Point -5 °F
Humidity 81%
Rainfall 0.00 in
Snow Depth Not available.
7:25 AM 4:22 PM
Waxing Gibbous, 69% visible
METAR KGCC 090053Z AUTO 00000KT 10SM CLR M20/M22 A3029 RMK AO2 SLP374 T12001222
Pressure 30.64 in
Visibility 10.0 miles
Clouds Clear
Windchill -2 °F
Dew Point -5 °F
Humidity 81%
Rainfall 0.00 in
Snow Depth Not available.
7:25 AM 4:22 PM
Waxing Gibbous, 69% visible
METAR KGCC 090053Z AUTO 00000KT 10SM CLR M20/M22 A3029 RMK AO2 SLP374 T12001222

10-Day Weather Forecast

Almanac

Astronomy

Dec. 08, 2016 Rise Set
Actual Time
Civil Twilight
Nautical Twilight
Astronomical Twilight
Moon
Length of Visible Light
Length of Day
Tomorrow will be .
, % of the Moon is Illuminated

Today's Extremes

State Highs State Lows

Community

WunderPhotos

Upload Photos

1,956,277 photos uploaded!

WunderBlog® & News

Nearby

Air Quality

  Air Quality AQ Index Pollutant
Not available.

Snow Depth

Station Depth Elevation

Earthquake Activity

City Distance Mag. Time & Date
Minimum magnitude displayed is 2.5.

Coastal Water Temperatures

Place Temperature

Stations

Nearby Weather Stations

Station Location Temp. Windchill Dew Point Humidity Wind Precip. Elev Updated Type
                   

Watches & Warnings

There are currently no watches in effect.